createdAt,value
2017-11-14T00:00:20.548Z,93.19
2017-11-14T00:01:26.458Z,93.18
2017-11-14T00:02:32.300Z,92.99
2017-11-14T00:03:38.140Z,92.69
2017-11-14T00:04:44.191Z,92.67
2017-11-14T00:05:50.271Z,92.66
2017-11-14T00:06:56.154Z,92.77
2017-11-14T00:08:03.136Z,92.81
2017-11-14T00:09:09.206Z,93.01
2017-11-14T00:10:15.315Z,93.08
2017-11-14T00:11:21.395Z,93.13
2017-11-14T00:12:27.310Z,93.47
2017-11-14T00:13:33.402Z,93.36
2017-11-14T00:14:39.513Z,93.80
2017-11-14T00:15:45.586Z,94.27
2017-11-14T00:16:54.719Z,94.48
2017-11-14T00:18:00.835Z,94.25
2017-11-14T00:19:10.671Z,94.40
2017-11-14T00:20:16.785Z,94.24
2017-11-14T00:21:22.891Z,94.06
2017-11-14T00:22:29.009Z,93.82
2017-11-14T00:23:40.077Z,93.65
2017-11-14T00:24:49.131Z,93.52
2017-11-14T00:25:55.215Z,93.41
2017-11-14T00:27:01.342Z,93.59
2017-11-14T00:28:07.425Z,93.55
2017-11-14T00:29:13.538Z,94.01
2017-11-14T00:30:20.610Z,94.11
2017-11-14T00:31:26.674Z,94.03
2017-11-14T00:32:32.778Z,94.17
2017-11-14T00:33:38.867Z,94.17
2017-11-14T00:34:44.970Z,94.00
2017-11-14T00:35:51.054Z,93.97
2017-11-14T00:36:57.178Z,93.72
2017-11-14T00:38:03.266Z,93.84
2017-11-14T00:39:09.339Z,93.92
2017-11-14T00:40:15.429Z,93.95
2017-11-14T00:41:21.502Z,93.71
2017-11-14T00:42:27.597Z,93.60
2017-11-14T00:43:33.719Z,93.89
2017-11-14T00:44:39.843Z,93.97
2017-11-14T00:45:45.945Z,93.77
2017-11-14T00:46:52.050Z,93.69
2017-11-14T00:47:58.126Z,93.91
2017-11-14T00:49:04.237Z,94.06
2017-11-14T00:50:10.301Z,94.19
2017-11-14T00:51:16.395Z,94.47
2017-11-14T00:52:22.522Z,94.42
2017-11-14T00:53:28.242Z,94.41
2017-11-14T00:54:34.306Z,94.17
2017-11-14T00:55:40.218Z,94.09
2017-11-14T00:56:46.373Z,94.21
2017-11-14T00:57:52.434Z,94.31
2017-11-14T00:58:58.532Z,94.64
2017-11-14T01:00:04.589Z,94.49
2017-11-14T01:01:10.496Z,94.64
2017-11-14T01:02:16.622Z,94.40
2017-11-14T01:03:22.724Z,94.33
2017-11-14T01:04:28.856Z,94.29
2017-11-14T01:05:34.978Z,94.23
2017-11-14T01:06:41.095Z,94.66
2017-11-14T01:07:47.203Z,94.78
2017-11-14T01:08:53.318Z,94.93
2017-11-14T01:09:59.447Z,94.87
2017-11-14T01:11:05.554Z,94.96
2017-11-14T01:12:11.689Z,95.33
2017-11-14T01:13:17.826Z,95.46
2017-11-14T01:14:23.979Z,95.50
2017-11-14T01:15:35.042Z,95.68
2017-11-14T01:16:47.000Z,95.82
2017-11-14T01:17:53.099Z,95.64
2017-11-14T01:18:59.229Z,95.67
2017-11-14T01:20:05.004Z,95.74
2017-11-14T01:21:11.102Z,95.81
2017-11-14T01:22:17.262Z,96.01
2017-11-14T01:23:24.230Z,96.29
2017-11-14T01:24:30.328Z,96.35
2017-11-14T01:25:36.441Z,96.27
2017-11-14T01:26:42.573Z,96.21
2017-11-14T01:27:48.515Z,96.04
2017-11-14T01:28:54.633Z,96.12
2017-11-14T01:30:00.738Z,96.24
2017-11-14T01:31:06.840Z,96.09
2017-11-14T01:32:12.947Z,96.23
2017-11-14T01:33:19.056Z,96.23
2017-11-14T01:34:24.898Z,96.54
2017-11-14T01:35:31.325Z,96.24
2017-11-14T01:36:37.431Z,96.25
2017-11-14T01:37:43.553Z,96.11
2017-11-14T01:38:49.677Z,96.17
2017-11-14T01:39:55.821Z,96.14
2017-11-14T01:41:01.551Z,96.04
2017-11-14T01:42:07.727Z,95.91
2017-11-14T01:43:13.912Z,95.65
2017-11-14T01:44:20.009Z,95.87
2017-11-14T01:45:27.110Z,95.78
2017-11-14T01:46:33.266Z,95.49
2017-11-14T01:47:39.395Z,95.39
2017-11-14T01:48:45.523Z,95.21
2017-11-14T01:49:51.635Z,95.07
2017-11-14T01:51:01.664Z,95.03
2017-11-14T01:52:07.885Z,94.70
2017-11-14T01:53:18.052Z,94.65
2017-11-14T01:54:24.328Z,94.97
2017-11-14T01:55:30.485Z,95.08
2017-11-14T01:56:36.601Z,94.84
2017-11-14T01:57:42.709Z,94.66
2017-11-14T01:58:48.806Z,94.22
2017-11-14T01:59:54.563Z,93.97
2017-11-14T02:01:00.458Z,93.86
2017-11-14T02:02:06.362Z,93.80
2017-11-14T02:03:11.753Z,93.80
2017-11-14T02:04:17.864Z,93.88
2017-11-14T02:05:23.384Z,94.10
2017-11-14T02:06:28.576Z,94.49
2017-11-14T02:07:33.806Z,94.47
2017-11-14T02:08:39.040Z,94.58
2017-11-14T02:09:44.251Z,94.56
2017-11-14T02:10:49.447Z,94.69
2017-11-14T02:11:55.410Z,94.72
2017-11-14T02:13:01.571Z,94.91
2017-11-14T02:14:07.731Z,94.73
2017-11-14T02:15:13.464Z,94.64
2017-11-14T02:16:19.566Z,94.65
2017-11-14T02:17:25.647Z,94.73
2017-11-14T02:18:31.364Z,94.79
2017-11-14T02:19:36.730Z,94.78
2017-11-14T02:20:42.098Z,94.72
2017-11-14T02:21:47.490Z,94.75
2017-11-14T02:22:52.703Z,94.83
2017-11-14T02:23:58.087Z,94.77
2017-11-14T02:25:03.445Z,94.80
2017-11-14T02:26:08.667Z,95.00
2017-11-14T02:27:13.655Z,94.81
2017-11-14T02:28:19.773Z,94.59
2017-11-14T02:29:25.174Z,94.46
2017-11-14T02:30:30.584Z,94.40
2017-11-14T02:31:36.111Z,94.53
2017-11-14T02:32:41.876Z,94.83
2017-11-14T02:33:47.616Z,94.75
2017-11-14T02:34:53.054Z,94.70
2017-11-14T02:35:58.432Z,94.64
2017-11-14T02:37:04.182Z,94.71
2017-11-14T02:38:09.460Z,94.90
2017-11-14T02:39:14.676Z,94.83
2017-11-14T02:40:20.051Z,94.95
2017-11-14T02:41:25.439Z,94.83
2017-11-14T02:42:30.885Z,94.72
2017-11-14T02:43:36.275Z,94.83
2017-11-14T02:44:41.664Z,94.75
2017-11-14T02:45:47.067Z,94.74
2017-11-14T02:46:52.495Z,94.66
2017-11-14T02:47:57.698Z,94.76
2017-11-14T02:49:03.077Z,94.81
2017-11-14T02:50:10.878Z,94.64
2017-11-14T02:51:16.642Z,94.45
2017-11-14T02:52:22.035Z,94.38
2017-11-14T02:53:28.291Z,94.50
2017-11-14T02:54:33.681Z,94.32
2017-11-14T02:55:39.805Z,94.24
2017-11-14T02:56:45.887Z,94.61
2017-11-14T02:57:51.991Z,94.61
2017-11-14T02:58:58.092Z,94.97
2017-11-14T03:00:03.625Z,95.00
2017-11-14T03:01:09.545Z,94.97
2017-11-14T03:02:15.664Z,95.15
2017-11-14T03:03:21.444Z,95.11
2017-11-14T03:04:27.565Z,95.03
2017-11-14T03:05:33.682Z,95.31
2017-11-14T03:06:39.776Z,95.37
2017-11-14T03:07:45.911Z,95.16
2017-11-14T03:08:51.648Z,95.24
2017-11-14T03:09:57.579Z,95.28
2017-11-14T03:11:03.753Z,95.10
2017-11-14T03:12:09.136Z,94.96
2017-11-14T03:13:14.954Z,94.98
2017-11-14T03:14:21.045Z,95.01
2017-11-14T03:15:26.818Z,95.09
2017-11-14T03:16:32.951Z,94.96
2017-11-14T03:17:38.359Z,95.04
2017-11-14T03:18:48.011Z,95.00
2017-11-14T03:19:54.098Z,94.97
2017-11-14T03:21:00.226Z,95.05
2017-11-14T03:22:06.335Z,95.16
2017-11-14T03:23:12.138Z,95.41
2017-11-14T03:24:17.848Z,95.52
2017-11-14T03:25:23.951Z,95.64
2017-11-14T03:26:30.070Z,95.73
2017-11-14T03:27:36.180Z,95.72
2017-11-14T03:28:42.786Z,95.52
2017-11-14T03:29:50.189Z,95.43
2017-11-14T03:30:56.798Z,95.37
2017-11-14T03:32:02.252Z,95.30
2017-11-14T03:33:08.166Z,95.41
2017-11-14T03:34:14.284Z,95.61
2017-11-14T03:35:20.442Z,95.60
2017-11-14T03:36:26.802Z,95.64
2017-11-14T03:37:32.911Z,95.90
2017-11-14T03:38:38.678Z,96.21
2017-11-14T03:39:44.475Z,96.19
2017-11-14T03:40:51.058Z,96.07
2017-11-14T03:41:56.650Z,96.01
2017-11-14T03:43:02.392Z,95.86
2017-11-14T03:44:08.483Z,95.49
2017-11-14T03:45:14.214Z,95.45
2017-11-14T03:46:20.301Z,94.90
2017-11-14T03:47:26.356Z,95.00
2017-11-14T03:48:32.481Z,94.67
2017-11-14T03:49:38.258Z,94.88
2017-11-14T03:50:43.662Z,95.00
2017-11-14T03:51:49.232Z,95.19
2017-11-14T03:52:54.400Z,95.38
2017-11-14T03:54:00.170Z,95.16
2017-11-14T03:55:05.892Z,95.42
2017-11-14T03:56:12.000Z,95.31
2017-11-14T03:57:17.903Z,95.34
2017-11-14T03:58:24.009Z,95.15
2017-11-14T03:59:30.101Z,94.90
2017-11-14T04:00:35.840Z,94.45
2017-11-14T04:01:41.749Z,94.13
2017-11-14T04:02:47.500Z,94.03
2017-11-14T04:03:53.660Z,94.06
2017-11-14T04:05:00.172Z,93.81
2017-11-14T04:06:05.968Z,93.44
2017-11-14T04:07:12.105Z,93.57
2017-11-14T04:08:20.375Z,93.48
2017-11-14T04:09:26.158Z,93.69
2017-11-14T04:10:31.501Z,93.55
2017-11-14T04:11:37.621Z,93.62
2017-11-14T04:12:43.712Z,93.67
2017-11-14T04:13:49.869Z,93.70
2017-11-14T04:14:55.979Z,94.08
2017-11-14T04:16:01.763Z,93.96
2017-11-14T04:17:07.879Z,93.48
2017-11-14T04:18:13.995Z,93.47
2017-11-14T04:19:20.137Z,93.12
2017-11-14T04:20:26.261Z,92.88
2017-11-14T04:21:32.377Z,92.85
2017-11-14T04:22:38.446Z,93.59
2017-11-14T04:23:44.567Z,94.03
2017-11-14T04:24:50.679Z,94.10
2017-11-14T04:25:56.767Z,94.16
2017-11-14T04:27:02.849Z,94.02
2017-11-14T04:28:09.003Z,94.04
2017-11-14T04:29:15.081Z,94.28
2017-11-14T04:30:29.016Z,94.02
2017-11-14T04:31:35.988Z,93.36
2017-11-14T04:32:42.075Z,93.29
2017-11-14T04:33:48.161Z,93.45
2017-11-14T04:34:54.291Z,93.63
2017-11-14T04:36:00.404Z,93.62
2017-11-14T04:37:06.547Z,93.99
2017-11-14T04:38:12.663Z,93.86
2017-11-14T04:39:18.783Z,94.02
2017-11-14T04:40:24.907Z,93.99
2017-11-14T04:41:31.139Z,93.87
2017-11-14T04:42:37.246Z,93.96
2017-11-14T04:43:43.318Z,94.21
2017-11-14T04:44:49.435Z,94.64
2017-11-14T04:45:55.608Z,94.94
2017-11-14T04:47:07.945Z,95.31
2017-11-14T04:48:14.049Z,95.26
2017-11-14T04:49:20.188Z,94.98
2017-11-14T04:50:26.283Z,94.17
2017-11-14T04:51:32.416Z,93.99
2017-11-14T04:52:38.634Z,93.58
2017-11-14T04:53:44.779Z,93.65
2017-11-14T04:54:50.896Z,93.64
2017-11-14T04:55:57.029Z,93.62
2017-11-14T04:57:03.040Z,93.55
2017-11-14T04:58:09.142Z,93.92
2017-11-14T04:59:15.248Z,93.85
2017-11-14T05:00:21.379Z,93.74
2017-11-14T05:01:27.489Z,93.53
2017-11-14T05:02:33.392Z,93.21
2017-11-14T05:03:39.487Z,92.93
2017-11-14T05:04:45.610Z,92.88
2017-11-14T05:05:51.329Z,92.63
2017-11-14T05:06:57.411Z,92.56
2017-11-14T05:08:03.481Z,92.74
2017-11-14T05:09:09.429Z,92.41
2017-11-14T05:10:15.620Z,92.45
2017-11-14T05:11:21.703Z,92.43
2017-11-14T05:12:27.873Z,92.43
2017-11-14T05:13:33.801Z,92.64
2017-11-14T05:14:39.963Z,92.55
2017-11-14T05:15:46.083Z,92.36
2017-11-14T05:16:52.172Z,92.43
2017-11-14T05:17:58.428Z,92.60
2017-11-14T05:19:04.585Z,92.87
2017-11-14T05:20:10.724Z,93.21
2017-11-14T05:21:16.802Z,93.24
2017-11-14T05:22:23.231Z,93.45
2017-11-14T05:23:29.378Z,93.59
2017-11-14T05:24:39.226Z,93.50
2017-11-14T05:25:45.448Z,93.39
2017-11-14T05:26:51.568Z,93.15
2017-11-14T05:27:57.713Z,93.11
2017-11-14T05:29:03.599Z,92.88
2017-11-14T05:30:09.701Z,92.67
2017-11-14T05:31:15.858Z,92.92
2017-11-14T05:32:21.869Z,92.77
2017-11-14T05:33:27.961Z,92.36
2017-11-14T05:34:34.084Z,92.08
2017-11-14T05:35:41.350Z,92.16
2017-11-14T05:36:47.475Z,91.96
2017-11-14T05:37:53.877Z,91.85
2017-11-14T05:39:00.100Z,92.26
2017-11-14T05:40:06.480Z,92.10
2017-11-14T05:41:12.633Z,91.95
2017-11-14T05:42:18.346Z,92.09
2017-11-14T05:43:24.458Z,92.30
2017-11-14T05:44:31.132Z,92.22
2017-11-14T05:45:37.816Z,92.44
2017-11-14T05:46:43.968Z,92.23
2017-11-14T05:47:50.063Z,92.01
2017-11-14T05:48:56.176Z,92.21
2017-11-14T05:50:02.283Z,92.57
2017-11-14T05:51:08.401Z,92.65
2017-11-14T05:52:14.528Z,92.72
2017-11-14T05:53:20.630Z,92.82
2017-11-14T05:54:26.763Z,92.83
2017-11-14T05:55:32.853Z,92.80
2017-11-14T05:56:38.982Z,92.60
2017-11-14T05:57:45.084Z,92.65
2017-11-14T05:58:51.158Z,92.80
2017-11-14T05:59:57.234Z,92.78
2017-11-14T06:01:03.353Z,92.51
2017-11-14T06:02:09.053Z,92.65
2017-11-14T06:03:15.134Z,92.87
2017-11-14T06:04:21.417Z,92.81
2017-11-14T06:05:27.511Z,92.79
2017-11-14T06:06:33.668Z,92.72
2017-11-14T06:07:39.852Z,92.85
2017-11-14T06:08:46.857Z,93.12
2017-11-14T06:09:53.366Z,92.99
2017-11-14T06:10:59.485Z,93.13
2017-11-14T06:12:05.599Z,93.12
2017-11-14T06:13:11.689Z,93.13
2017-11-14T06:14:17.865Z,93.29
2017-11-14T06:15:23.989Z,93.58
2017-11-14T06:16:30.109Z,93.38
2017-11-14T06:17:41.046Z,92.89
2017-11-14T06:18:47.147Z,92.57
2017-11-14T06:19:53.306Z,92.37
2017-11-14T06:20:59.440Z,92.66
2017-11-14T06:22:05.623Z,92.64
2017-11-14T06:23:12.021Z,92.53
2017-11-14T06:24:18.208Z,92.24
2017-11-14T06:25:24.462Z,92.54
2017-11-14T06:26:30.592Z,92.41
2017-11-14T06:27:36.671Z,92.41
2017-11-14T06:28:42.787Z,92.51
2017-11-14T06:29:48.890Z,92.70
2017-11-14T06:30:54.999Z,92.78
2017-11-14T06:32:01.091Z,92.64
2017-11-14T06:33:07.198Z,92.51
2017-11-14T06:34:13.272Z,92.50
2017-11-14T06:35:19.356Z,92.26
2017-11-14T06:36:25.456Z,92.49
2017-11-14T06:37:31.540Z,92.14
2017-11-14T06:38:37.620Z,91.72
2017-11-14T06:39:43.717Z,91.66
2017-11-14T06:40:51.248Z,91.68
2017-11-14T06:41:57.905Z,91.54
2017-11-14T06:43:03.985Z,91.72
2017-11-14T06:44:10.059Z,91.74
2017-11-14T06:45:16.180Z,91.72
2017-11-14T06:46:22.319Z,91.67
2017-11-14T06:47:28.404Z,91.85
2017-11-14T06:48:37.546Z,92.30
2017-11-14T06:49:43.683Z,92.42
2017-11-14T06:50:49.811Z,92.31
2017-11-14T06:51:55.925Z,92.40
2017-11-14T06:53:02.033Z,92.66
2017-11-14T06:54:08.156Z,92.66
2017-11-14T06:55:14.240Z,92.28
2017-11-14T06:56:20.321Z,92.02
2017-11-14T06:57:26.440Z,91.65
2017-11-14T06:58:32.541Z,91.97
2017-11-14T06:59:44.169Z,91.95
2017-11-14T07:00:50.276Z,91.88
2017-11-14T07:01:56.392Z,91.79
2017-11-14T07:03:02.471Z,91.37
2017-11-14T07:04:08.545Z,91.34
2017-11-14T07:05:14.662Z,92.03
2017-11-14T07:06:20.741Z,92.30
2017-11-14T07:07:26.861Z,92.77
2017-11-14T07:08:33.001Z,92.61
2017-11-14T07:09:39.114Z,92.61
2017-11-14T07:10:45.189Z,92.50
2017-11-14T07:11:51.296Z,93.01
2017-11-14T07:12:57.379Z,92.78
2017-11-14T07:14:03.512Z,93.02
2017-11-14T07:15:09.655Z,93.55
2017-11-14T07:16:15.736Z,93.87
2017-11-14T07:17:21.828Z,93.80
2017-11-14T07:18:27.923Z,93.77
2017-11-14T07:19:34.035Z,93.84
2017-11-14T07:20:40.119Z,93.98
2017-11-14T07:21:46.237Z,93.84
2017-11-14T07:22:52.340Z,93.95
2017-11-14T07:23:58.244Z,93.75
2017-11-14T07:25:04.307Z,93.93
2017-11-14T07:26:10.381Z,94.06
2017-11-14T07:27:16.487Z,94.19
2017-11-14T07:28:22.602Z,94.28
2017-11-14T07:29:28.755Z,94.62
2017-11-14T07:30:34.833Z,94.73
2017-11-14T07:31:40.799Z,94.87
2017-11-14T07:32:46.904Z,94.92
2017-11-14T07:33:53.037Z,94.87
2017-11-14T07:34:59.118Z,94.83
2017-11-14T07:36:05.222Z,94.88
2017-11-14T07:37:11.349Z,94.98
2017-11-14T07:38:17.435Z,95.27
2017-11-14T07:39:23.532Z,95.52
2017-11-14T07:40:29.694Z,95.84
2017-11-14T07:41:35.794Z,95.79
2017-11-14T07:42:41.911Z,95.88
2017-11-14T07:43:48.043Z,96.50
2017-11-14T07:44:54.131Z,96.40
2017-11-14T07:46:00.256Z,96.41
2017-11-14T07:47:06.396Z,96.46
2017-11-14T07:48:12.484Z,96.06
2017-11-14T07:49:18.579Z,95.98
2017-11-14T07:50:24.658Z,96.06
2017-11-14T07:51:30.776Z,95.93
2017-11-14T07:52:37.001Z,95.57
2017-11-14T07:53:43.081Z,95.26
2017-11-14T07:54:49.204Z,94.74
2017-11-14T07:55:55.282Z,94.85
2017-11-14T07:57:01.435Z,95.34
2017-11-14T07:58:07.541Z,95.37
2017-11-14T07:59:13.643Z,94.84
2017-11-14T08:00:19.737Z,94.62
2017-11-14T08:01:25.834Z,94.76
2017-11-14T08:02:31.975Z,94.40
2017-11-14T08:03:37.398Z,94.43
2017-11-14T08:04:43.499Z,94.44
2017-11-14T08:05:49.377Z,94.24
2017-11-14T08:06:55.485Z,94.52
2017-11-14T08:08:01.550Z,94.08
2017-11-14T08:09:07.296Z,94.09
2017-11-14T08:10:12.689Z,93.83
2017-11-14T08:11:18.809Z,93.80
2017-11-14T08:12:24.937Z,93.25
2017-11-14T08:13:31.049Z,93.26
2017-11-14T08:14:37.198Z,93.32
2017-11-14T08:15:43.345Z,93.08
2017-11-14T08:16:52.329Z,92.89
2017-11-14T08:17:58.279Z,92.49
2017-11-14T08:19:04.374Z,92.56
2017-11-14T08:20:10.497Z,92.49
2017-11-14T08:21:16.625Z,92.30
2017-11-14T08:22:22.757Z,92.30
2017-11-14T08:23:28.956Z,92.30
2017-11-14T08:24:35.074Z,92.20
2017-11-14T08:25:41.229Z,91.72
2017-11-14T08:26:47.311Z,91.68
2017-11-14T08:27:53.458Z,91.27
2017-11-14T08:28:59.580Z,91.31
2017-11-14T08:30:05.675Z,91.00
2017-11-14T08:31:11.788Z,90.85
2017-11-14T08:32:17.904Z,90.68
2017-11-14T08:33:24.030Z,90.40
2017-11-14T08:34:30.177Z,90.59
2017-11-14T08:35:36.261Z,90.32
2017-11-14T08:36:42.353Z,90.27
2017-11-14T08:37:48.115Z,90.32
2017-11-14T08:38:54.218Z,90.19
2017-11-14T08:39:59.955Z,90.12
2017-11-14T08:41:05.729Z,90.11
2017-11-14T08:42:11.839Z,89.88
2017-11-14T08:43:17.974Z,89.92
2017-11-14T08:44:23.717Z,90.02
2017-11-14T08:45:29.481Z,90.07
2017-11-14T08:46:35.573Z,90.17
2017-11-14T08:47:41.696Z,90.13
2017-11-14T08:48:47.829Z,90.05
2017-11-14T08:49:53.961Z,90.02
2017-11-14T08:51:00.089Z,90.06
2017-11-14T08:52:06.197Z,90.18
2017-11-14T08:53:12.349Z,90.08
2017-11-14T08:54:18.251Z,89.80
2017-11-14T08:55:24.337Z,89.97
2017-11-14T08:56:30.081Z,90.06
2017-11-14T08:57:36.196Z,89.81
2017-11-14T08:58:41.953Z,89.76
2017-11-14T08:59:47.685Z,89.61
2017-11-14T09:00:53.800Z,89.36
2017-11-14T09:01:59.868Z,89.31
2017-11-14T09:03:05.631Z,89.18
2017-11-14T09:04:11.772Z,89.02
2017-11-14T09:05:18.004Z,89.10
2017-11-14T09:06:23.748Z,88.92
2017-11-14T09:07:29.157Z,88.78
2017-11-14T09:08:34.912Z,88.49
2017-11-14T09:09:40.325Z,88.37
2017-11-14T09:10:46.054Z,88.23
2017-11-14T09:11:51.438Z,87.99
2017-11-14T09:12:57.161Z,87.91
2017-11-14T09:14:02.914Z,87.65
2017-11-14T09:15:08.381Z,87.83
2017-11-14T09:16:14.154Z,88.11
2017-11-14T09:17:20.947Z,87.85
2017-11-14T09:18:26.545Z,87.94
2017-11-14T09:19:31.953Z,88.21
2017-11-14T09:20:37.408Z,87.99
2017-11-14T09:21:43.126Z,87.95
2017-11-14T09:22:48.495Z,87.83
2017-11-14T09:23:53.890Z,87.86
2017-11-14T09:24:59.614Z,87.89
2017-11-14T09:26:05.381Z,87.99
2017-11-14T09:27:10.622Z,88.07
2017-11-14T09:28:16.161Z,88.11
2017-11-14T09:29:21.555Z,88.02
2017-11-14T09:30:26.976Z,88.00
2017-11-14T09:31:38.173Z,87.77
2017-11-14T09:32:44.363Z,87.88
2017-11-14T09:33:50.108Z,87.92
2017-11-14T09:34:55.679Z,87.35
2017-11-14T09:36:01.092Z,87.01
2017-11-14T09:37:06.455Z,86.64
2017-11-14T09:38:11.847Z,86.35
2017-11-14T09:39:17.318Z,86.17
2017-11-14T09:40:22.733Z,85.98
2017-11-14T09:41:28.140Z,85.91
2017-11-14T09:42:33.849Z,85.90
2017-11-14T09:43:39.279Z,86.19
2017-11-14T09:44:44.505Z,86.14
2017-11-14T09:45:49.962Z,85.91
2017-11-14T09:46:55.769Z,85.93
2017-11-14T09:48:01.193Z,85.76
2017-11-14T09:49:06.644Z,85.77
2017-11-14T09:50:12.057Z,86.35
2017-11-14T09:51:17.454Z,86.00
2017-11-14T09:52:22.822Z,86.03
2017-11-14T09:53:28.024Z,85.95
2017-11-14T09:54:34.140Z,85.77
2017-11-14T09:55:39.518Z,85.38
2017-11-14T09:56:44.863Z,85.22
2017-11-14T09:57:50.264Z,85.19
2017-11-14T09:58:55.700Z,85.11
2017-11-14T10:00:02.145Z,84.84
2017-11-14T10:01:07.283Z,85.02
2017-11-14T10:02:12.827Z,85.02
2017-11-14T10:03:18.211Z,85.06
2017-11-14T10:04:23.446Z,84.73
2017-11-14T10:05:28.992Z,84.27
2017-11-14T10:06:34.399Z,84.13
2017-11-14T10:07:39.770Z,83.94
2017-11-14T10:08:45.175Z,84.16
2017-11-14T10:09:50.573Z,84.85
2017-11-14T10:10:55.952Z,84.56
2017-11-14T10:12:03.149Z,84.18
2017-11-14T10:13:08.686Z,83.85
2017-11-14T10:14:14.120Z,83.54
2017-11-14T10:15:19.533Z,83.15
2017-11-14T10:16:25.309Z,82.84
2017-11-14T10:17:30.648Z,82.77
2017-11-14T10:18:35.998Z,82.36
2017-11-14T10:19:41.436Z,82.40
2017-11-14T10:20:46.793Z,81.89
2017-11-14T10:21:52.202Z,81.01
2017-11-14T10:22:57.690Z,81.31
2017-11-14T10:24:03.051Z,82.08
2017-11-14T10:25:08.685Z,82.23
2017-11-14T10:26:14.040Z,81.88
2017-11-14T10:27:19.389Z,82.06
2017-11-14T10:28:24.789Z,82.26
2017-11-14T10:29:30.201Z,81.94
2017-11-14T10:30:35.641Z,81.95
2017-11-14T10:31:41.037Z,81.68
2017-11-14T10:32:46.392Z,81.45
2017-11-14T10:33:51.742Z,81.59
2017-11-14T10:34:57.141Z,81.41
2017-11-14T10:36:02.486Z,80.98
2017-11-14T10:37:07.825Z,80.93
2017-11-14T10:38:13.185Z,81.08
2017-11-14T10:39:18.588Z,81.16
2017-11-14T10:40:23.985Z,80.83
2017-11-14T10:41:32.409Z,80.83
2017-11-14T10:42:41.976Z,80.37
2017-11-14T10:43:47.355Z,80.14
2017-11-14T10:44:52.744Z,79.94
2017-11-14T10:45:58.130Z,79.96
2017-11-14T10:47:03.504Z,79.93
2017-11-14T10:48:08.874Z,79.97
2017-11-14T10:49:14.072Z,80.23
2017-11-14T10:50:19.502Z,80.02
2017-11-14T10:51:24.712Z,79.67
2017-11-14T10:52:30.087Z,79.26
2017-11-14T10:53:35.789Z,78.95
2017-11-14T10:54:41.454Z,79.01
2017-11-14T10:55:46.907Z,79.01
2017-11-14T10:56:52.652Z,78.74
2017-11-14T10:57:59.910Z,78.54
2017-11-14T10:59:05.267Z,78.28
2017-11-14T11:00:10.450Z,78.13
2017-11-14T11:01:15.647Z,78.06
2017-11-14T11:02:21.011Z,77.71
2017-11-14T11:03:26.366Z,77.27
2017-11-14T11:04:31.735Z,77.32
2017-11-14T11:05:37.095Z,77.22
2017-11-14T11:06:42.484Z,77.43
2017-11-14T11:07:47.853Z,77.16
2017-11-14T11:08:54.918Z,76.90
2017-11-14T11:10:00.298Z,77.16
2017-11-14T11:11:10.463Z,77.37
2017-11-14T11:12:15.816Z,77.43
2017-11-14T11:13:21.197Z,77.29
2017-11-14T11:14:26.569Z,77.34
2017-11-14T11:15:31.953Z,77.14
2017-11-14T11:16:37.350Z,76.97
2017-11-14T11:17:42.730Z,76.64
2017-11-14T11:18:48.209Z,76.46
2017-11-14T11:19:53.960Z,76.31
2017-11-14T11:20:59.371Z,75.98
2017-11-14T11:22:05.094Z,75.67
2017-11-14T11:23:16.740Z,75.84
2017-11-14T11:24:22.141Z,75.55
2017-11-14T11:25:27.516Z,75.23
2017-11-14T11:26:32.931Z,76.11
2017-11-14T11:27:38.321Z,76.46
2017-11-14T11:28:43.678Z,76.97
2017-11-14T11:29:49.396Z,76.81
2017-11-14T11:30:54.812Z,76.45
2017-11-14T11:32:00.594Z,76.88
2017-11-14T11:33:05.759Z,76.87
2017-11-14T11:34:11.130Z,76.92
2017-11-14T11:35:16.862Z,76.85
2017-11-14T11:36:22.267Z,76.84
2017-11-14T11:37:27.695Z,76.49
2017-11-14T11:38:33.098Z,76.74
2017-11-14T11:39:38.477Z,76.92
2017-11-14T11:40:43.873Z,77.00
2017-11-14T11:41:49.245Z,77.23
2017-11-14T11:42:54.633Z,77.04
2017-11-14T11:44:00.356Z,77.12
2017-11-14T11:45:05.736Z,77.14
2017-11-14T11:46:11.154Z,77.59
2017-11-14T11:47:16.556Z,77.66
2017-11-14T11:48:22.277Z,77.14
2017-11-14T11:49:28.101Z,76.99
2017-11-14T11:50:33.561Z,76.91
2017-11-14T11:51:38.951Z,76.84
2017-11-14T11:52:44.398Z,76.85
2017-11-14T11:53:49.868Z,76.27
2017-11-14T11:54:58.178Z,76.15
2017-11-14T11:56:03.938Z,76.26
2017-11-14T11:57:09.299Z,75.85
2017-11-14T11:58:14.704Z,75.39
2017-11-14T11:59:20.096Z,75.09
2017-11-14T12:00:25.538Z,75.15
2017-11-14T12:01:30.927Z,75.20
2017-11-14T12:02:36.142Z,75.38
2017-11-14T12:03:41.504Z,74.99
2017-11-14T12:04:46.917Z,75.38
2017-11-14T12:05:52.622Z,75.69
2017-11-14T12:07:01.980Z,75.71
2017-11-14T12:08:07.340Z,75.64
2017-11-14T12:09:19.333Z,75.26
2017-11-14T12:10:24.522Z,75.38
2017-11-14T12:11:29.935Z,75.75
2017-11-14T12:12:35.712Z,75.80
2017-11-14T12:13:41.102Z,76.09
2017-11-14T12:14:46.868Z,76.22
2017-11-14T12:15:52.319Z,76.50
2017-11-14T12:16:57.737Z,77.08
2017-11-14T12:18:03.461Z,77.46
2017-11-14T12:19:08.658Z,77.85
2017-11-14T12:20:14.072Z,77.76
2017-11-14T12:21:19.299Z,77.75
2017-11-14T12:22:35.985Z,77.65
2017-11-14T12:23:41.395Z,77.70
2017-11-14T12:24:46.791Z,77.65
2017-11-14T12:25:52.168Z,77.36
2017-11-14T12:26:57.409Z,77.06
2017-11-14T12:28:06.676Z,76.58
2017-11-14T12:29:13.854Z,76.58
2017-11-14T12:30:19.226Z,76.59
2017-11-14T12:31:24.988Z,76.77
2017-11-14T12:32:30.503Z,76.42
2017-11-14T12:33:35.658Z,76.54
2017-11-14T12:34:41.357Z,75.89
2017-11-14T12:35:47.086Z,75.90
2017-11-14T12:36:52.859Z,76.08
2017-11-14T12:37:58.931Z,76.56
2017-11-14T12:39:04.327Z,76.21
2017-11-14T12:40:10.025Z,76.39
2017-11-14T12:41:18.887Z,76.25
2017-11-14T12:42:25.105Z,76.71
2017-11-14T12:43:31.176Z,76.46
2017-11-14T12:44:36.860Z,76.24
2017-11-14T12:45:43.011Z,76.17
2017-11-14T12:46:49.126Z,76.78
2017-11-14T12:47:54.824Z,77.06
2017-11-14T12:49:00.527Z,77.29
2017-11-14T12:50:06.607Z,77.12
2017-11-14T12:51:12.656Z,77.55
2017-11-14T12:52:18.823Z,77.66
2017-11-14T12:53:24.558Z,77.55
2017-11-14T12:54:30.699Z,77.74
2017-11-14T12:55:36.746Z,77.62
2017-11-14T12:56:42.845Z,77.91
2017-11-14T12:57:48.927Z,78.15
2017-11-14T12:58:55.003Z,77.99
2017-11-14T13:00:01.065Z,78.05
2017-11-14T13:01:06.273Z,77.87
2017-11-14T13:02:11.804Z,78.25
2017-11-14T13:03:17.507Z,78.22
2017-11-14T13:04:23.227Z,78.50
2017-11-14T13:05:29.279Z,78.65
2017-11-14T13:06:35.343Z,78.58
2017-11-14T13:07:41.071Z,78.66
2017-11-14T13:08:46.939Z,78.58
2017-11-14T13:09:52.695Z,78.11
2017-11-14T13:11:01.593Z,77.45
2017-11-14T13:12:09.621Z,77.54
2017-11-14T13:13:15.675Z,77.66
2017-11-14T13:14:21.736Z,77.62
2017-11-14T13:15:27.811Z,77.92
2017-11-14T13:16:33.891Z,78.32
2017-11-14T13:17:39.646Z,78.28
2017-11-14T13:18:45.421Z,78.07
2017-11-14T13:19:51.477Z,78.07
2017-11-14T13:20:57.531Z,78.00
2017-11-14T13:22:03.667Z,77.88
2017-11-14T13:23:09.776Z,77.61
2017-11-14T13:24:15.856Z,77.60
2017-11-14T13:25:21.933Z,77.87
2017-11-14T13:26:27.733Z,78.12
2017-11-14T13:27:33.837Z,78.04
2017-11-14T13:28:39.949Z,78.03
2017-11-14T13:29:46.000Z,78.11
2017-11-14T13:30:51.718Z,78.03
2017-11-14T13:31:57.243Z,78.06
2017-11-14T13:33:02.656Z,78.27
2017-11-14T13:34:07.815Z,78.29
2017-11-14T13:35:13.861Z,78.21
2017-11-14T13:36:19.906Z,78.25
2017-11-14T13:37:26.134Z,78.29
2017-11-14T13:38:32.244Z,78.06
2017-11-14T13:39:38.341Z,78.09
2017-11-14T13:40:44.408Z,78.02
2017-11-14T13:41:50.508Z,78.21
2017-11-14T13:42:56.579Z,78.27
2017-11-14T13:44:02.639Z,78.43
2017-11-14T13:45:08.720Z,78.28
2017-11-14T13:46:14.787Z,78.30
2017-11-14T13:47:20.888Z,77.93
2017-11-14T13:48:26.977Z,77.93
2017-11-14T13:49:33.012Z,78.10
2017-11-14T13:50:39.096Z,78.33
2017-11-14T13:51:44.975Z,78.02
2017-11-14T13:52:51.074Z,78.05
2017-11-14T13:53:57.131Z,77.97
2017-11-14T13:55:03.184Z,77.36
2017-11-14T13:56:09.268Z,77.41
2017-11-14T13:57:15.332Z,77.18
2017-11-14T13:58:21.441Z,76.70
2017-11-14T13:59:27.527Z,76.66
2017-11-14T14:00:33.235Z,76.54
2017-11-14T14:01:39.285Z,76.31
2017-11-14T14:02:45.172Z,76.54
2017-11-14T14:03:50.900Z,76.74
2017-11-14T14:04:57.000Z,76.99
2017-11-14T14:06:03.060Z,76.78
2017-11-14T14:07:09.149Z,76.46
2017-11-14T14:08:15.236Z,76.65
2017-11-14T14:09:20.913Z,76.47
2017-11-14T14:10:26.612Z,76.53